createdAt,value
2023-03-06T00:01:26.339Z,50.78
2023-03-06T00:04:09.607Z,50.22
2023-03-06T00:06:59.386Z,51.55
2023-03-06T00:09:47.642Z,48.40
2023-03-06T00:12:30.370Z,51.13
2023-03-06T00:15:13.694Z,51.73
2023-03-06T00:18:03.383Z,52.00
2023-03-06T00:20:46.194Z,51.25
2023-03-06T00:23:35.407Z,51.03
2023-03-06T00:26:23.717Z,49.70
2023-03-06T00:29:06.355Z,52.60
2023-03-06T00:31:49.092Z,52.55
2023-03-06T00:34:38.344Z,50.72
2023-03-06T00:37:27.610Z,51.45
2023-03-06T00:40:10.415Z,49.88
2023-03-06T00:42:58.753Z,49.40
2023-03-06T00:45:41.433Z,51.20
2023-03-06T00:48:29.866Z,53.03
2023-03-06T00:51:13.997Z,53.40
2023-03-06T00:54:02.656Z,50.53
2023-03-06T00:56:45.370Z,50.15
2023-03-06T00:59:33.604Z,52.17
2023-03-06T01:02:16.362Z,51.25
2023-03-06T01:05:05.389Z,55.57
2023-03-06T01:08:01.181Z,53.60
2023-03-06T01:10:50.386Z,55.03
2023-03-06T01:13:39.456Z,62.33
2023-03-06T01:16:29.641Z,67.35
2023-03-06T01:19:12.509Z,73.68
2023-03-06T01:22:02.428Z,75.47
2023-03-06T01:24:44.663Z,69.30
2023-03-06T01:27:33.364Z,68.85
2023-03-06T01:30:19.627Z,68.60
2023-03-06T01:33:09.320Z,59.35
2023-03-06T01:35:51.744Z,63.47
2023-03-06T01:38:40.403Z,63.15
2023-03-06T01:41:23.678Z,63.90
2023-03-06T01:44:12.345Z,57.03
2023-03-06T01:46:55.680Z,55.67
2023-03-06T01:49:48.379Z,56.60
2023-03-06T01:52:36.641Z,49.38
2023-03-06T01:55:30.417Z,52.35
2023-03-06T01:58:25.424Z,48.53
2023-03-06T02:01:31.246Z,49.40
2023-03-06T02:04:20.314Z,47.38
2023-03-06T02:07:12.435Z,48.72
2023-03-06T02:10:00.579Z,47.33
2023-03-06T02:12:45.383Z,46.83
2023-03-06T02:15:37.380Z,46.97
2023-03-06T02:18:26.488Z,46.00
2023-03-06T02:21:14.908Z,46.60
2023-03-06T02:24:19.357Z,44.63
2023-03-06T02:27:04.369Z,46.30
2023-03-06T02:29:54.404Z,44.15
2023-03-06T02:32:36.629Z,41.88
2023-03-06T02:35:38.466Z,41.63
2023-03-06T02:38:30.334Z,43.38
2023-03-06T02:41:16.682Z,41.55
2023-03-06T02:44:05.444Z,39.33
2023-03-06T02:46:47.656Z,38.40
2023-03-06T02:49:36.648Z,40.88
2023-03-06T02:52:19.639Z,37.35
2023-03-06T02:55:08.367Z,38.13
2023-03-06T02:57:57.386Z,37.30
2023-03-06T03:00:46.328Z,37.20
2023-03-06T03:03:29.688Z,36.42
2023-03-06T03:06:21.441Z,38.40
2023-03-06T03:09:09.691Z,38.45
2023-03-06T03:11:53.381Z,40.40
2023-03-06T03:14:42.429Z,39.33
2023-03-06T03:17:24.705Z,38.13
2023-03-06T03:20:15.379Z,39.88
2023-03-06T03:23:00.643Z,41.03
2023-03-06T03:25:49.382Z,40.30
2023-03-06T03:28:38.274Z,35.95
2023-03-06T03:31:29.462Z,39.67
2023-03-06T03:34:13.028Z,40.58
2023-03-06T03:37:02.420Z,40.60
2023-03-06T03:39:46.674Z,39.80
2023-03-06T03:42:36.328Z,39.53
2023-03-06T03:45:26.348Z,39.72
2023-03-06T03:48:16.591Z,38.97
2023-03-06T03:50:59.711Z,38.90
2023-03-06T03:53:51.676Z,39.78
2023-03-06T03:56:37.408Z,40.15
2023-03-06T03:59:25.683Z,41.33
2023-03-06T04:02:40.381Z,44.92
2023-03-06T04:05:41.419Z,39.65
2023-03-06T04:08:25.750Z,41.38
2023-03-06T04:11:15.396Z,40.17
2023-03-06T04:13:57.647Z,40.13
2023-03-06T04:16:47.311Z,42.17
2023-03-06T04:19:36.398Z,40.08
2023-03-06T04:22:20.570Z,41.63
2023-03-06T04:27:52.595Z,40.08
2023-03-06T04:30:42.424Z,30.88
2023-03-06T04:33:25.714Z,41.38
2023-03-06T04:36:15.378Z,31.63
2023-03-06T04:39:05.749Z,31.73
2023-03-06T04:41:49.391Z,32.08
2023-03-06T04:44:31.714Z,33.45
2023-03-06T04:47:20.434Z,31.35
2023-03-06T04:50:08.667Z,30.92
2023-03-06T04:52:51.438Z,28.85
2023-03-06T04:58:22.700Z,31.00
2023-03-06T05:01:11.714Z,33.83
2023-03-06T05:03:54.309Z,28.27
2023-03-06T05:06:42.657Z,34.08
2023-03-06T05:09:31.367Z,27.77
2023-03-06T05:12:13.618Z,27.95
2023-03-06T05:15:02.412Z,27.58
2023-03-06T05:17:45.669Z,26.20
2023-03-06T05:20:36.418Z,27.83
2023-03-06T05:23:18.622Z,26.30
2023-03-06T05:26:07.288Z,28.95
2023-03-06T05:28:49.814Z,28.40
2023-03-06T05:31:38.416Z,26.38
2023-03-06T05:34:22.621Z,26.67
2023-03-06T05:37:11.411Z,24.52
2023-03-06T05:39:53.670Z,25.27
2023-03-06T05:42:42.346Z,23.83
2023-03-06T05:45:24.613Z,24.75
2023-03-06T05:48:14.413Z,23.35
2023-03-06T05:51:03.727Z,26.30
2023-03-06T05:53:52.410Z,23.13
2023-03-06T05:56:34.909Z,21.85
2023-03-06T05:59:23.384Z,21.60
2023-03-06T06:02:13.534Z,23.35
2023-03-06T06:05:01.635Z,21.75
2023-03-06T06:07:44.307Z,17.23
2023-03-06T06:10:33.626Z,17.17
2023-03-06T06:13:16.359Z,18.77
2023-03-06T06:16:05.400Z,18.83
2023-03-06T06:18:54.339Z,12.90
2023-03-06T06:21:36.601Z,12.07
2023-03-06T06:24:25.361Z,11.75
2023-03-06T06:27:08.292Z,11.48
2023-03-06T06:29:57.365Z,9.82
2023-03-06T06:32:40.214Z,11.10
2023-03-06T06:35:29.396Z,10.10
2023-03-06T06:38:17.585Z,9.85
2023-03-06T06:41:31.171Z,9.65
2023-03-06T06:44:08.766Z,8.98
2023-03-06T06:47:21.897Z,9.80
2023-03-06T06:52:43.826Z,9.30
2023-03-06T06:55:32.446Z,9.00
2023-03-06T06:58:14.650Z,9.48
2023-03-06T07:01:03.402Z,11.13
2023-03-06T07:03:52.363Z,10.82
2023-03-06T07:06:40.713Z,10.45
2023-03-06T07:09:30.321Z,11.85
2023-03-06T07:12:19.399Z,12.07
2023-03-06T07:15:08.052Z,12.50
2023-03-06T07:17:51.419Z,10.77
2023-03-06T07:20:39.574Z,12.38
2023-03-06T07:23:22.353Z,12.27
2023-03-06T07:26:11.383Z,11.20
2023-03-06T07:28:56.486Z,12.00
2023-03-06T07:31:45.405Z,11.75
2023-03-06T07:34:27.982Z,12.52
2023-03-06T07:37:18.349Z,13.57
2023-03-06T07:40:00.763Z,11.15
2023-03-06T07:42:49.392Z,9.75
2023-03-06T07:45:35.696Z,9.65
2023-03-06T07:48:24.332Z,10.43
2023-03-06T07:51:22.350Z,11.40
2023-03-06T07:54:11.632Z,12.25
2023-03-06T07:56:54.407Z,11.05
2023-03-06T07:59:42.656Z,10.98
2023-03-06T08:02:25.328Z,10.38
2023-03-06T08:05:15.692Z,9.95
2023-03-06T08:07:57.355Z,8.32
2023-03-06T08:10:52.407Z,9.18
2023-03-06T08:13:40.701Z,7.43
2023-03-06T08:16:23.311Z,7.68
2023-03-06T08:19:05.600Z,8.27
2023-03-06T08:21:54.356Z,7.50
2023-03-06T08:24:42.612Z,7.82
2023-03-06T08:27:24.358Z,6.25
2023-03-06T08:30:08.020Z,7.50
2023-03-06T08:32:57.396Z,7.60
2023-03-06T08:35:39.537Z,6.15
2023-03-06T08:38:28.348Z,5.35
2023-03-06T08:41:16.569Z,6.80
2023-03-06T08:43:59.335Z,7.75
2023-03-06T08:46:49.397Z,6.30
2023-03-06T08:49:31.721Z,7.05
2023-03-06T08:52:20.405Z,7.47
2023-03-06T08:55:04.594Z,6.28
2023-03-06T08:57:54.377Z,4.97
2023-03-06T09:00:36.687Z,5.53
2023-03-06T09:03:25.494Z,5.13
2023-03-06T09:06:07.613Z,6.00
2023-03-06T09:09:03.304Z,7.07
2023-03-06T09:11:52.754Z,6.30
2023-03-06T09:14:34.610Z,6.55
2023-03-06T09:17:23.486Z,5.30
2023-03-06T09:20:06.488Z,6.47
2023-03-06T09:22:55.353Z,6.68
2023-03-06T09:25:37.615Z,6.13
2023-03-06T09:28:26.424Z,6.20
2023-03-06T09:31:08.672Z,5.63
2023-03-06T09:33:57.309Z,5.95
2023-03-06T09:36:55.549Z,6.25
2023-03-06T09:39:46.394Z,7.35
2023-03-06T09:42:30.682Z,5.75
2023-03-06T09:45:21.496Z,4.97
2023-03-06T09:48:14.703Z,5.13
2023-03-06T09:51:08.305Z,3.63
2023-03-06T09:54:06.226Z,3.95
2023-03-06T09:56:58.307Z,3.10
2023-03-06T09:59:41.674Z,3.55
2023-03-06T10:02:54.411Z,4.63
2023-03-06T10:05:59.895Z,5.07
2023-03-06T10:09:15.355Z,5.13
2023-03-06T10:12:24.582Z,3.60
2023-03-06T10:15:28.452Z,4.90
2023-03-06T10:18:19.736Z,2.88
2023-03-06T10:21:19.121Z,3.03
2023-03-06T10:24:35.618Z,3.05
2023-03-06T10:27:39.414Z,3.72
2023-03-06T10:30:48.784Z,3.13
2023-03-06T10:33:38.316Z,3.00
2023-03-06T10:36:22.544Z,2.42
2023-03-06T10:39:13.353Z,2.90
2023-03-06T10:42:03.586Z,3.13
2023-03-06T10:44:46.361Z,3.30
2023-03-06T10:47:37.982Z,3.35
2023-03-06T10:50:42.635Z,3.65
2023-03-06T10:53:35.692Z,4.07
2023-03-06T10:56:18.305Z,4.55
2023-03-06T10:59:19.663Z,4.28
2023-03-06T11:02:07.335Z,4.07
2023-03-06T11:05:01.074Z,3.88
2023-03-06T11:07:44.331Z,4.07
2023-03-06T11:10:36.449Z,3.97
2023-03-06T11:13:32.620Z,3.92
2023-03-06T11:16:35.560Z,3.95
2023-03-06T11:19:35.345Z,4.00
2023-03-06T11:22:21.035Z,4.25
2023-03-06T11:25:11.325Z,4.47
2023-03-06T11:28:26.525Z,3.90
2023-03-06T11:31:18.948Z,4.28
2023-03-06T11:34:27.399Z,4.03
2023-03-06T11:37:32.045Z,4.85
2023-03-06T11:40:32.682Z,5.47
2023-03-06T11:43:28.668Z,5.22
2023-03-06T11:46:36.361Z,5.25
2023-03-06T11:49:47.411Z,4.60
2023-03-06T11:52:47.845Z,5.50
2023-03-06T11:55:54.349Z,5.15
2023-03-06T11:58:57.310Z,5.28
2023-03-06T12:01:58.603Z,5.07
2023-03-06T12:04:47.302Z,3.97
2023-03-06T12:07:43.205Z,3.83
2023-03-06T12:11:04.292Z,3.97
2023-03-06T12:14:16.178Z,4.53
2023-03-06T12:17:14.410Z,4.22
2023-03-06T12:20:23.287Z,4.63
2023-03-06T12:23:39.315Z,4.20
2023-03-06T12:26:36.618Z,4.55
2023-03-06T12:29:37.386Z,4.50
2023-03-06T12:32:58.636Z,4.60
2023-03-06T12:36:03.397Z,4.55
2023-03-06T12:39:09.622Z,4.30
2023-03-06T12:42:23.400Z,4.68
2023-03-06T12:45:23.557Z,5.60
2023-03-06T12:48:07.336Z,4.53
2023-03-06T12:50:56.666Z,4.13
2023-03-06T12:53:42.351Z,3.85
2023-03-06T12:56:31.398Z,5.80
2023-03-06T12:59:13.602Z,4.20
2023-03-06T13:02:20.378Z,4.53
2023-03-06T13:05:27.383Z,5.20
2023-03-06T13:08:52.274Z,4.72
2023-03-06T13:12:08.290Z,5.40
2023-03-06T13:15:03.699Z,4.50
2023-03-06T13:17:46.382Z,4.63
2023-03-06T13:20:45.948Z,4.72
2023-03-06T13:23:43.320Z,5.20
2023-03-06T13:26:35.650Z,5.45
2023-03-06T13:29:42.846Z,5.50
2023-03-06T13:32:39.886Z,5.40
2023-03-06T13:35:50.414Z,5.85
2023-03-06T13:38:46.347Z,6.18
2023-03-06T13:41:31.749Z,7.43
2023-03-06T13:44:32.354Z,8.13
2023-03-06T13:47:27.766Z,9.13
2023-03-06T13:50:45.308Z,8.82
2023-03-06T13:53:45.974Z,9.57
2023-03-06T13:56:56.357Z,9.52
2023-03-06T14:00:09.660Z,12.30
2023-03-06T14:03:14.411Z,12.40
2023-03-06T14:05:59.954Z,11.88
2023-03-06T14:08:49.331Z,9.82
2023-03-06T14:11:39.767Z,9.93
2023-03-06T14:14:23.392Z,9.77
2023-03-06T14:17:14.724Z,9.43
2023-03-06T14:19:58.423Z,9.85
2023-03-06T14:22:47.633Z,9.15
2023-03-06T14:25:39.389Z,10.35
2023-03-06T14:28:34.782Z,8.73
2023-03-06T14:31:39.419Z,9.65
2023-03-06T14:34:32.492Z,10.45
2023-03-06T14:37:37.399Z,10.43
2023-03-06T14:40:42.563Z,11.43
2023-03-06T14:43:34.801Z,11.82
2023-03-06T14:46:22.568Z,9.57
2023-03-06T14:49:14.673Z,11.10
2023-03-06T14:52:07.565Z,11.38
2023-03-06T14:54:53.617Z,10.95
2023-03-06T14:57:42.291Z,10.90
2023-03-06T15:00:29.817Z,11.85
2023-03-06T15:03:31.521Z,11.40
2023-03-06T15:06:24.352Z,11.82
2023-03-06T15:09:32.369Z,12.88
2023-03-06T15:12:28.894Z,11.80
2023-03-06T15:15:18.477Z,11.73
2023-03-06T15:18:07.859Z,12.05
2023-03-06T15:21:00.593Z,12.23
2023-03-06T15:23:51.270Z,12.57
2023-03-06T15:26:43.879Z,13.25
2023-03-06T15:29:32.770Z,11.98
2023-03-06T15:32:41.732Z,12.50
2023-03-06T15:35:38.399Z,12.23
2023-03-06T15:38:51.344Z,12.50
2023-03-06T15:41:40.043Z,14.13
2023-03-06T15:44:30.651Z,14.40
2023-03-06T15:47:19.844Z,14.07
2023-03-06T15:50:02.469Z,13.15
2023-03-06T15:52:53.291Z,13.67
2023-03-06T15:55:36.268Z,14.55
2023-03-06T15:58:28.190Z,15.70
2023-03-06T16:01:11.363Z,14.63
2023-03-06T16:03:54.608Z,13.38
2023-03-06T16:09:49.381Z,15.65
2023-03-06T16:12:40.055Z,16.83
2023-03-06T16:15:29.774Z,17.45
2023-03-06T16:18:19.699Z,15.98
2023-03-06T16:21:04.016Z,15.45
2023-03-06T16:23:53.880Z,15.43
2023-03-06T16:26:42.399Z,16.73
2023-03-06T16:29:35.311Z,17.13
2023-03-06T16:32:19.870Z,16.92
2023-03-06T16:35:10.214Z,17.88
2023-03-06T16:37:55.916Z,18.33
2023-03-06T16:40:43.015Z,19.70
2023-03-06T16:43:33.337Z,21.10
2023-03-06T16:46:31.084Z,21.67
2023-03-06T16:49:14.923Z,21.75
2023-03-06T16:52:05.911Z,22.05
2023-03-06T16:54:49.999Z,20.90
2023-03-06T16:57:44.045Z,22.83
2023-03-06T17:00:34.824Z,22.05
2023-03-06T17:03:26.006Z,21.63
2023-03-06T17:06:09.960Z,21.30
2023-03-06T17:09:00.958Z,22.77
2023-03-06T17:11:48.358Z,23.67
2023-03-06T17:14:38.893Z,20.75
2023-03-06T17:17:22.769Z,20.85
2023-03-06T17:20:17.022Z,21.02
2023-03-06T17:23:01.363Z,22.13
2023-03-06T17:25:53.168Z,21.02
2023-03-06T17:28:43.811Z,20.88
2023-03-06T17:31:36.651Z,20.48
2023-03-06T17:37:34.372Z,22.20
2023-03-06T17:40:19.642Z,23.05
2023-03-06T17:43:10.019Z,22.48
2023-03-06T17:45:57.324Z,22.25
2023-03-06T17:48:48.291Z,20.95
2023-03-06T17:51:31.723Z,20.77
2023-03-06T17:54:20.348Z,22.67
2023-03-06T17:57:06.509Z,23.17
2023-03-06T17:59:57.798Z,20.80
2023-03-06T18:02:52.224Z,22.30
2023-03-06T18:05:44.086Z,22.55
2023-03-06T18:08:29.632Z,21.30
2023-03-06T18:11:21.068Z,21.40
2023-03-06T18:14:06.007Z,20.95
2023-03-06T18:16:56.897Z,21.45
2023-03-06T18:19:40.986Z,21.60
2023-03-06T18:25:13.592Z,20.63
2023-03-06T18:28:02.308Z,18.90
2023-03-06T18:30:48.296Z,20.55
2023-03-06T18:33:37.986Z,19.00
2023-03-06T18:36:22.237Z,18.17
2023-03-06T18:39:15.914Z,18.60
2023-03-06T18:41:59.043Z,18.23
2023-03-06T18:44:49.732Z,17.70
2023-03-06T18:47:33.605Z,18.55
2023-03-06T18:50:25.909Z,17.95
2023-03-06T18:53:10.584Z,18.08
2023-03-06T18:56:05.108Z,17.17
2023-03-06T18:58:50.599Z,16.75
2023-03-06T19:01:40.768Z,17.85
2023-03-06T19:04:24.924Z,16.17
2023-03-06T19:07:16.526Z,15.85
2023-03-06T19:10:05.961Z,15.77
2023-03-06T19:12:49.972Z,15.55
2023-03-06T19:15:39.689Z,14.93
2023-03-06T19:18:25.412Z,17.02
2023-03-06T19:21:34.668Z,15.23
2023-03-06T19:24:21.805Z,16.30
2023-03-06T19:27:12.723Z,15.30
2023-03-06T19:29:55.322Z,14.38
2023-03-06T19:32:46.882Z,14.38
2023-03-06T19:35:36.006Z,16.63
2023-03-06T19:38:25.992Z,17.63
2023-03-06T19:41:09.322Z,14.98
2023-03-06T19:44:11.676Z,15.20
2023-03-06T19:46:55.088Z,15.43
2023-03-06T19:49:46.971Z,15.63
2023-03-06T19:52:31.017Z,15.70
2023-03-06T19:58:03.944Z,16.38
2023-03-06T20:00:53.766Z,17.40
2023-03-06T20:03:35.898Z,17.55
2023-03-06T20:06:28.627Z,16.88
2023-03-06T20:09:24.231Z,16.60
2023-03-06T20:12:13.389Z,17.13
2023-03-06T20:15:03.461Z,17.25
2023-03-06T20:17:46.891Z,18.45
2023-03-06T20:20:36.930Z,16.92
2023-03-06T20:23:25.725Z,17.38
2023-03-06T20:26:13.497Z,17.80
2023-03-06T20:29:02.513Z,17.55
2023-03-06T20:31:52.271Z,19.05
2023-03-06T20:34:40.848Z,20.15
2023-03-06T20:37:23.363Z,18.23
2023-03-06T20:40:13.529Z,18.38
2023-03-06T20:42:56.350Z,18.33
2023-03-06T20:45:46.837Z,17.02
2023-03-06T20:48:29.300Z,16.63
2023-03-06T20:51:19.636Z,18.00
2023-03-06T20:54:09.333Z,16.80
2023-03-06T20:56:59.048Z,17.83
2023-03-06T20:59:42.306Z,16.45
2023-03-06T21:02:31.236Z,18.10
2023-03-06T21:05:13.908Z,17.30
2023-03-06T21:08:02.285Z,17.35
2023-03-06T21:11:00.324Z,17.73
2023-03-06T21:13:42.561Z,17.40
2023-03-06T21:16:34.279Z,18.05
2023-03-06T21:19:23.280Z,17.80
2023-03-06T21:22:12.259Z,18.27
2023-03-06T21:25:01.837Z,18.27
2023-03-06T21:27:43.665Z,19.25
2023-03-06T21:30:32.323Z,19.05
2023-03-06T21:33:14.632Z,18.27
2023-03-06T21:36:03.327Z,18.00
2023-03-06T21:38:45.631Z,17.95
2023-03-06T21:41:38.373Z,18.88
2023-03-06T21:44:20.883Z,18.30
2023-03-06T21:47:09.350Z,18.15
2023-03-06T21:49:51.616Z,19.92
2023-03-06T21:52:40.321Z,19.50
2023-03-06T21:55:23.652Z,18.88
2023-03-06T21:58:12.287Z,20.35
2023-03-06T22:00:54.593Z,18.92
2023-03-06T22:03:43.312Z,19.63
2023-03-06T22:06:28.544Z,19.65
2023-03-06T22:09:17.269Z,19.75
2023-03-06T22:12:00.032Z,19.20
2023-03-06T22:14:51.226Z,20.33
2023-03-06T22:17:33.604Z,19.67
2023-03-06T22:20:23.270Z,20.75
2023-03-06T22:23:05.600Z,19.25
2023-03-06T22:25:54.291Z,20.48
2023-03-06T22:28:36.585Z,21.92
2023-03-06T22:31:28.338Z,19.88
2023-03-06T22:34:10.555Z,19.98
2023-03-06T22:36:59.239Z,19.13
2023-03-06T22:39:41.556Z,20.42
2023-03-06T22:42:30.536Z,20.10
2023-03-06T22:45:13.666Z,19.30
2023-03-06T22:48:10.497Z,18.75
2023-03-06T22:50:53.568Z,19.27
2023-03-06T22:53:42.283Z,18.90
2023-03-06T22:56:27.524Z,19.85
2023-03-06T22:59:16.260Z,18.90
2023-03-06T23:02:05.297Z,22.75
2023-03-06T23:04:56.511Z,19.67
2023-03-06T23:07:39.256Z,18.55
2023-03-06T23:10:35.143Z,19.65
2023-03-06T23:13:42.309Z,19.75
2023-03-06T23:16:42.535Z,19.52
2023-03-06T23:19:49.284Z,20.45
2023-03-06T23:22:49.574Z,22.10
2023-03-06T23:25:57.273Z,20.52
2023-03-06T23:28:39.528Z,21.27
2023-03-06T23:31:36.264Z,22.13
2023-03-06T23:34:18.532Z,22.48
2023-03-06T23:37:07.343Z,24.55
2023-03-06T23:39:50.547Z,24.42
2023-03-06T23:42:39.494Z,25.15
2023-03-06T23:45:21.520Z,24.30
2023-03-06T23:48:10.289Z,26.10
2023-03-06T23:50:52.594Z,27.00
2023-03-06T23:53:41.339Z,29.13
2023-03-06T23:56:23.600Z,28.42
2023-03-06T23:59:12.266Z,26.52
